Map

Track Data

SID SEASON NUMBER BASIN SUBBASIN NAME ISO_TIME NATURE LAT LON WMO_WIND WMO_PRES WMO_AGENCY TRACK_TYPE DIST2LAND LANDFALL IFLAG USA_AGENCY USA_ATCF_ID USA_LAT USA_LON USA_RECORD USA_STATUS USA_WIND USA_PRES USA_SSHS USA_R34_NE USA_R34_SE USA_R34_SW USA_R34_NW USA_R50_NE USA_R50_SE USA_R50_SW USA_R50_NW USA_R64_NE USA_R64_SE USA_R64_SW USA_R64_NW USA_POCI USA_ROCI USA_RMW USA_EYE TOKYO_LAT TOKYO_LON TOKYO_GRADE TOKYO_WIND TOKYO_PRES TOKYO_R50_DIR TOKYO_R50_LONG TOKYO_R50_SHORT TOKYO_R30_DIR TOKYO_R30_LONG TOKYO_R30_SHORT TOKYO_LAND CMA_LAT CMA_LON CMA_CAT CMA_WIND CMA_PRES HKO_LAT HKO_LON HKO_CAT HKO_WIND HKO_PRES NEWDELHI_LAT NEWDELHI_LON NEWDELHI_GRADE NEWDELHI_WIND NEWDELHI_PRES NEWDELHI_CI NEWDELHI_DP NEWDELHI_POCI REUNION_LAT REUNION_LON REUNION_TYPE REUNION_WIND REUNION_PRES REUNION_TNUM REUNION_CI REUNION_RMW REUNION_R34_NE REUNION_R34_SE REUNION_R34_SW REUNION_R34_NW REUNION_R50_NE REUNION_R50_SE REUNION_R50_SW REUNION_R50_NW REUNION_R64_NE REUNION_R64_SE REUNION_R64_SW REUNION_R64_NW BOM_LAT BOM_LON BOM_TYPE BOM_WIND BOM_PRES BOM_TNUM BOM_CI BOM_RMW BOM_R34_NE BOM_R34_SE BOM_R34_SW BOM_R34_NW BOM_R50_NE BOM_R50_SE BOM_R50_SW BOM_R50_NW BOM_R64_NE BOM_R64_SE BOM_R64_SW BOM_R64_NW BOM_ROCI BOM_POCI BOM_EYE BOM_POS_METHOD BOM_PRES_METHOD NADI_LAT NADI_LON NADI_CAT NADI_WIND NADI_PRES WELLINGTON_LAT WELLINGTON_LON WELLINGTON_WIND WELLINGTON_PRES DS824_LAT DS824_LON DS824_STAGE DS824_WIND DS824_PRES TD9636_LAT TD9636_LON TD9636_STAGE TD9636_WIND TD9636_PRES TD9635_LAT TD9635_LON TD9635_WIND TD9635_PRES TD9635_ROCI NEUMANN_LAT NEUMANN_LON NEUMANN_CLASS NEUMANN_WIND NEUMANN_PRES MLC_LAT MLC_LON MLC_CLASS MLC_WIND MLC_PRES USA_GUST BOM_GUST BOM_GUST_PER REUNION_GUST REUNION_GUST_PER USA_SEAHGT USA_SEARAD_NE USA_SEARAD_SE USA_SEARAD_SW USA_SEARAD_NW STORM_SPEED STORM_DIR
1895234N13302 1895 26 NA NA NOT_NAMED 1895-08-22 00:00:00 TS 13.4000 -58.3000 35 hurdat_atl main 421 387 O_____________ hurdat_atl AL021895 13.4000 -58.3000 TS 35 0 13 283
1895234N13302 1895 26 NA NA NOT_NAMED 1895-08-22 03:00:00 TS 13.5505 -58.9723 main 390 368 P_____________ AL021895 13.5505 -58.9723 TS 37 0 13 283
1895234N13302 1895 26 NA CS NOT_NAMED 1895-08-22 06:00:00 TS 13.7000 -59.6000 40 hurdat_atl main 368 360 O_____________ hurdat_atl AL021895 13.7000 -59.6000 TS 40 0 12 285
1895234N13302 1895 26 NA CS NOT_NAMED 1895-08-22 09:00:00 TS 13.8497 -60.1576 main 357 357 P_____________ AL021895 13.8497 -60.1576 TS 42 0 11 286
1895234N13302 1895 26 NA CS NOT_NAMED 1895-08-22 12:00:00 TS 14.0000 -60.7000 45 hurdat_atl main 370 369 O_____________ hurdat_atl AL021895 14.0000 -60.7000 TS 45 0 11 286
1895234N13302 1895 26 NA CS NOT_NAMED 1895-08-22 15:00:00 TS 14.1574 -61.2925 main 391 391 P_____________ AL021895 14.1574 -61.2925 TS 47 0 12 284
1895234N13302 1895 26 NA CS NOT_NAMED 1895-08-22 18:00:00 TS 14.3000 -61.9000 50 hurdat_atl main 403 403 O_____________ hurdat_atl AL021895 14.3000 -61.9000 TS 50 0 12 282
1895234N13302 1895 26 NA CS NOT_NAMED 1895-08-22 21:00:00 TS 14.3998 -62.4927 main 414 414 P_____________ AL021895 14.3998 -62.4927 TS 52 0 12 280
1895234N13302 1895 26 NA CS NOT_NAMED 1895-08-23 00:00:00 TS 14.5000 -63.1000 55 hurdat_atl main 425 425 O_____________ hurdat_atl AL021895 14.5000 -63.1000 TS 55 0 12 282
1895234N13302 1895 26 NA CS NOT_NAMED 1895-08-23 03:00:00 TS 14.6498 -63.7350 main 441 388 P_____________ AL021895 14.6498 -63.7350 TS 55 0 13 283
1895234N13302 1895 26 NA CS NOT_NAMED 1895-08-23 06:00:00 TS 14.8000 -64.4000 55 hurdat_atl main 388 354 O_____________ hurdat_atl AL021895 14.8000 -64.4000 TS 55 0 13 281
1895234N13302 1895 26 NA CS NOT_NAMED 1895-08-23 09:00:00 TS 14.8999 -65.0927 main 354 327 P_____________ AL021895 14.8999 -65.0927 TS 57 0 14 278
1895234N13302 1895 26 NA CS NOT_NAMED 1895-08-23 12:00:00 TS 15.0000 -65.8000 60 hurdat_atl main 327 313 O_____________ hurdat_atl AL021895 15.0000 -65.8000 TS 60 0 14 280
1895234N13302 1895 26 NA CS NOT_NAMED 1895-08-23 15:00:00 TS 15.1497 -66.4925 main 314 290 P_____________ AL021895 15.1497 -66.4925 TS 62 0 14 283
1895234N13302 1895 26 NA CS NOT_NAMED 1895-08-23 18:00:00 TS 15.3000 -67.2000 65 hurdat_atl main 290 283 O_____________ hurdat_atl AL021895 15.3000 -67.2000 HU 65 1 14 280
1895234N13302 1895 26 NA CS NOT_NAMED 1895-08-23 21:00:00 TS 15.3998 -67.9427 main 289 289 P_____________ AL021895 15.3998 -67.9427 HU 67 1 15 278
1895234N13302 1895 26 NA CS NOT_NAMED 1895-08-24 00:00:00 TS 15.5000 -68.7000 70 hurdat_atl main 302 291 O_____________ hurdat_atl AL021895 15.5000 -68.7000 HU 70 1 15 280
1895234N13302 1895 26 NA CS NOT_NAMED 1895-08-24 03:00:00 TS 15.6497 -69.4499 main 297 238 P_____________ AL021895 15.6497 -69.4499 HU 72 1 15 282
1895234N13302 1895 26 NA CS NOT_NAMED 1895-08-24 06:00:00 TS 15.8000 -70.2000 75 hurdat_atl main 238 197 O_____________ hurdat_atl AL021895 15.8000 -70.2000 HU 75 1 15 280
1895234N13302 1895 26 NA CS NOT_NAMED 1895-08-24 09:00:00 TS 15.8922 -70.9428 main 197 179 P_____________ AL021895 15.8922 -70.9428 HU 75 1 15 278
1895234N13302 1895 26 NA CS NOT_NAMED 1895-08-24 12:00:00 TS 16.0000 -71.7000 75 hurdat_atl main 181 179 O_____________ hurdat_atl AL021895 16.0000 -71.7000 HU 75 1 15 281
1895234N13302 1895 26 NA CS NOT_NAMED 1895-08-24 15:00:00 TS 16.1771 -72.4776 main 195 186 P_____________ AL021895 16.1771 -72.4776 HU 77 1 16 285
1895234N13302 1895 26 NA CS NOT_NAMED 1895-08-24 18:00:00 TS 16.4000 -73.3000 80 hurdat_atl main 186 156 O_____________ hurdat_atl AL021895 16.4000 -73.3000 HU 80 1 17 286
1895234N13302 1895 26 NA CS NOT_NAMED 1895-08-24 21:00:00 TS 16.6422 -74.1776 main 159 148 P_____________ AL021895 16.6422 -74.1776 HU 80 1 18 286
1895234N13302 1895 26 NA CS NOT_NAMED 1895-08-25 00:00:00 TS 16.9000 -75.1000 80 hurdat_atl main 161 91 O_____________ hurdat_atl AL021895 16.9000 -75.1000 HU 80 1 18 286
1895234N13302 1895 26 NA CS NOT_NAMED 1895-08-25 03:00:00 TS 17.1421 -76.0354 main 91 45 P_____________ AL021895 17.1421 -76.0354 HU 80 1 19 285
1895234N13302 1895 26 NA CS NOT_NAMED 1895-08-25 06:00:00 TS 17.4000 -77.0000 80 hurdat_atl main 39 22 O_____________ hurdat_atl AL021895 17.4000 -77.0000 HU 80 1 20 286
1895234N13302 1895 26 NA CS NOT_NAMED 1895-08-25 09:00:00 TS 17.7079 -78.0521 main 46 39 P_____________ AL021895 17.7079 -78.0521 HU 82 1 20 287
1895234N13302 1895 26 NA CS NOT_NAMED 1895-08-25 12:00:00 TS 18.0000 -79.0000 85 hurdat_atl main 67 67 O_____________ hurdat_atl AL021895 18.0000 -79.0000 HU 85 2 16 288
1895234N13302 1895 26 NA CS NOT_NAMED 1895-08-25 15:00:00 TS 18.2142 -79.6680 main 137 137 P_____________ AL021895 18.2142 -79.6680 HU 85 2 12 289
1895234N13302 1895 26 NA CS NOT_NAMED 1895-08-25 18:00:00 TS 18.4000 -80.2000 85 hurdat_atl main 191 191 O_____________ hurdat_atl AL021895 18.4000 -80.2000 HU 85 2 11 290
1895234N13302 1895 26 NA CS NOT_NAMED 1895-08-25 21:00:00 TS 18.5844 -80.7205 main 246 246 P_____________ AL021895 18.5844 -80.7205 HU 85 2 11 291
1895234N13302 1895 26 NA CS NOT_NAMED 1895-08-26 00:00:00 TS 18.8000 -81.3000 85 hurdat_atl main 313 264 O_____________ hurdat_atl AL021895 18.8000 -81.3000 HU 85 2 15 288
1895234N13302 1895 26 NA CS NOT_NAMED 1895-08-26 03:00:00 TS 19.0701 -82.2707 main 262 225 P_____________ AL021895 19.0701 -82.0627 HU 85 2 19 289
1895234N13302 1895 26 NA CS NOT_NAMED 1895-08-26 06:00:00 TS 19.4200 -83.2000 85 hurdat_atl main 227 211 O____________O hurdat_atl AL021895 19.4000 -82.9000 HU 85 2 19.5000 -84.4000 TS 50 18 294
1895234N13302 1895 26 NA CS NOT_NAMED 1895-08-26 09:00:00 TS 19.8081 -84.0300 main 216 179 P____________P AL021895 19.7924 -83.7224 HU 85 2 19.8377 -84.8497 TS 50 17 298
1895234N13302 1895 26 NA CS NOT_NAMED 1895-08-26 12:00:00 TS 20.2000 -84.7667 85 hurdat_atl main 178 143 O____________O hurdat_atl AL021895 20.2000 -84.5000 HU 85 2 20.2000 -85.3000 TS 50 15 301
1895234N13302 1895 26 NA CS NOT_NAMED 1895-08-26 15:00:00 TS 20.5763 -85.3703 main 146 85 P____________P AL021895 20.5646 -85.1804 HU 85 2 20.5999 -85.7501 TS 50 13 304
1895234N13302 1895 26 NA CS NOT_NAMED 1895-08-26 18:00:00 TS 20.9333 -85.9333 85 hurdat_atl main 85 23 O____________O hurdat_atl AL021895 20.9000 -85.8000 HU 85 2 21.0000 -86.2000 TS 50 13 303
1895234N13302 1895 26 NA CS NOT_NAMED 1895-08-26 21:00:00 TS 21.2674 -86.5010 main 30 0 P____________P AL021895 21.2074 -86.4228 HU 85 2 21.3874 -86.6575 TS 52 12 302
1895234N13302 1895 26 NA CS NOT_NAMED 1895-08-27 00:00:00 TS 21.5667 -87.0333 85 hurdat_atl main 11 11 O____________O hurdat_atl AL021895 21.5000 -87.0000 HU 85 2 21.7000 -87.1000 TS 55 11 301
1895234N13302 1895 26 NA GM NOT_NAMED 1895-08-27 03:00:00 TS 21.8339 -87.5152 main 39 39 P____________P AL021895 21.8072 -87.5152 HU 85 2 21.8874 -87.5153 TS 55 10 300
1895234N13302 1895 26 NA GM NOT_NAMED 1895-08-27 06:00:00 TS 22.0667 -87.9667 85 hurdat_atl main 67 67 O____________O hurdat_atl AL021895 22.1000 -88.0000 HU 85 2 22.0000 -87.9000 TS 55 10 298
1895234N13302 1895 26 NA GM NOT_NAMED 1895-08-27 09:00:00 TS 22.2766 -88.4243 main 89 89 P____________P AL021895 22.3649 -88.5076 HU 85 2 22.0999 -88.2577 TS 57 9 296
1895234N13302 1895 26 NA GM NOT_NAMED 1895-08-27 12:00:00 TS 22.4667 -88.8667 85 hurdat_atl main 116 116 O____________O hurdat_atl AL021895 22.6000 -89.0000 HU 85 2 22.2000 -88.6000 TS 60 9 295
1895234N13302 1895 26 NA GM NOT_NAMED 1895-08-27 15:00:00 TS 22.6600 -89.3034 main 152 152 P____________P AL021895 22.8150 -89.4801 HU 85 2 22.3499 -88.9500 TS 60 9 295
1895234N13302 1895 26 NA GM NOT_NAMED 1895-08-27 18:00:00 TS 22.8333 -89.7000 85 hurdat_atl main 172 172 O____________O hurdat_atl AL021895 23.0000 -89.9000 HU 85 2 22.5000 -89.3000 TS 60 7 295
1895234N13302 1895 26 NA GM NOT_NAMED 1895-08-27 21:00:00 TS 22.9664 -90.0120 main 201 201 P____________P AL021895 23.1571 -90.2003 HU 85 2 22.5848 -89.6354 TS 62 6 295
1895234N13302 1895 26 NA GM NOT_NAMED 1895-08-28 00:00:00 TS 23.1000 -90.3333 85 hurdat_atl main 216 216 O____________O hurdat_atl AL021895 23.3000 -90.5000 HU 85 2 22.7000 -90.0000 HU 65 8 294
1895234N13302 1895 26 NA GM NOT_NAMED 1895-08-28 03:00:00 TS 23.2734 -90.7633 main 251 251 P____________P AL021895 23.4425 -90.9276 HU 85 2 22.9350 -90.4348 HU 75 9 294
1895234N13302 1895 26 NA GM NOT_NAMED 1895-08-28 06:00:00 TS 23.4667 -91.2333 85 hurdat_atl main 283 283 O____________O hurdat_atl AL021895 23.6000 -91.4000 HU 85 2 23.2000 -90.9000 HU 85 9 295
1895234N13302 1895 26 NA GM NOT_NAMED 1895-08-28 09:00:00 TS 23.6666 -91.6909 main 324 324 P____________P AL021895 23.7999 -91.8575 HU 85 2 23.3999 -91.3577 HU 92 9 296
1895234N13302 1895 26 NA GM NOT_NAMED 1895-08-28 12:00:00 TS 23.8667 -92.1333 85 hurdat_atl main 363 363 O____________O hurdat_atl AL021895 24.0000 -92.3000 HU 85 2 23.6000 -91.8000 MH 100 9 297
1895234N13302 1895 26 NA GM NOT_NAMED 1895-08-28 15:00:00 TS 24.0598 -92.5385 main 404 404 P____________P AL021895 24.1648 -92.7076 HU 87 2 23.8498 -92.2001 MH 100 8 297
1895234N13302 1895 26 NA GM NOT_NAMED 1895-08-28 18:00:00 TS 24.2333 -92.9333 90 hurdat_atl main 437 414 O____________O hurdat_atl AL021895 24.3000 -93.1000 HU 90 2 24.1000 -92.6000 MH 100 965 8 294
1895234N13302 1895 26 NA GM NOT_NAMED 1895-08-28 21:00:00 TS 24.3841 -93.3476 main 414 373 P____________P AL021895 24.4149 -93.5001 HU 92 2 24.3224 -93.0425 MH 100 8 289
1895234N13302 1895 26 NA GM NOT_NAMED 1895-08-29 00:00:00 TS 24.5000 -93.7667 95 hurdat_atl main 363 321 O____________O hurdat_atl AL021895 24.5000 -93.9000 HU 95 2 24.5000 -93.5000 MH 100 8 284
1895234N13302 1895 26 NA GM NOT_NAMED 1895-08-29 03:00:00 TS 24.5791 -94.1835 main 321 284 P____________P AL021895 24.5574 -94.3001 HU 95 2 24.6224 -93.9502 MH 95 8 280
1895234N13302 1895 26 NA GM NOT_NAMED 1895-08-29 06:00:00 TS 24.6333 -94.6000 95 hurdat_atl main 284 243 O____________O hurdat_atl AL021895 24.6000 -94.7000 HU 95 2 24.7000 -94.4000 HU 90 8 278
1895234N13302 1895 26 NA GM NOT_NAMED 1895-08-29 09:00:00 TS 24.6857 -95.0167 main 243 206 P____________P AL021895 24.6499 -95.1000 HU 95 2 24.7574 -94.8501 HU 90 8 278
1895234N13302 1895 26 NA GM NOT_NAMED 1895-08-29 12:00:00 TS 24.7333 -95.4333 95 hurdat_atl main 206 165 O____________O hurdat_atl AL021895 24.7000 -95.5000 HU 95 2 24.8000 -95.3000 HU 90 8 277
1895234N13302 1895 26 NA GM NOT_NAMED 1895-08-29 15:00:00 TS 24.7832 -95.8525 main 156 128 P____________P AL021895 24.7499 -95.9000 HU 95 2 24.8499 -95.7575 HU 85 8 278
1895234N13302 1895 26 NA GM NOT_NAMED 1895-08-29 18:00:00 TS 24.8333 -96.2667 95 hurdat_atl main 119 87 O____________O hurdat_atl AL021895 24.8000 -96.3000 HU 95 2 24.9000 -96.2000 HU 80 7 277
1895234N13302 1895 26 NA GM NOT_NAMED 1895-08-29 21:00:00 TS 24.8782 -96.6693 main 78 51 P____________P AL021895 24.8499 -96.7000 HU 95 2 24.9348 -96.6077 HU 75 7 278
1895234N13302 1895 26 NA GM NOT_NAMED 1895-08-30 00:00:00 TS 24.9333 -97.0667 95 hurdat_atl main 41 10 O____________O hurdat_atl AL021895 24.9000 -97.1000 HU 95 2 25.0000 -97.0000 HU 70 7 280
1895234N13302 1895 26 NA GM NOT_NAMED 1895-08-30 03:00:00 TS 25.0115 -97.4642 main 0 0 P____________P AL021895 24.9499 -97.5000 HU 80 1 25.1348 -97.3925 HU 67 7 283
1895234N13302 1895 26 NA NA NOT_NAMED 1895-08-30 06:00:00 TS 25.1000 -97.8667 65 hurdat_atl main 0 0 O____________O hurdat_atl AL021895 25.0000 -97.9000 HU 65 1 25.3000 -97.8000 HU 65 8 283
1895234N13302 1895 26 NA NA NOT_NAMED 1895-08-30 09:00:00 TS 25.1883 -98.2833 main 0 0 P____________P AL021895 25.0499 -98.3000 HU 52 0 25.4650 -98.2499 HU 57 8 282
1895234N13302 1895 26 NA NA NOT_NAMED 1895-08-30 12:00:00 TS 25.2667 -98.7000 40 hurdat_atl main 0 0 O____________O hurdat_atl AL021895 25.1000 -98.7000 TS 40 0 25.6000 -98.7000 TS 50 8 280
1895234N13302 1895 26 NA NA NOT_NAMED 1895-08-30 15:00:00 TS 25.3235 -99.1042 main 0 0 P____________P AL021895 25.1502 -99.0999 TS 35 0 25.6701 -99.1126 TS 40 7 278
1895234N13302 1895 26 NA NA NOT_NAMED 1895-08-30 18:00:00 TS 25.3667 -99.5000 30 hurdat_atl main 0 O____________O hurdat_atl AL021895 25.2000 -99.5000 TD 30 -1 25.7000 -99.5000 TD 30 7 277

About IBTrACS Database

This database is a web-friendly format of International Best Track Archive for Climate Stewardship (IBTrACS), a global best track data archive curated by NOAA dating back to 1842.

Updated: 2021-11-26